Time;durP1;ratioP1;P1;durP2;ratioP2;P2;SDS_P1;SDS_P2;PMS_P1;PMS_P2;Temp;Humidity;BMP_temperature;BMP_pressure;BME280_temperature;BME280_humidity;BME280_pressure;Samples;Min_cycle;Max_cycle;Signal;HPM_P1;HPM_P2
2021/10/01 00:02:05;;;;;;;3.40;2.35;;;6.40;99.90;;;;;;4876866;29;20214;-74
2021/10/01 00:04:32;;;;;;;2.80;2.10;;;6.40;99.90;;;;;;4876723;29;20227;-73
2021/10/01 00:06:59;;;;;;;3.40;2.45;;;6.40;99.90;;;;;;4877105;29;20211;-74
2021/10/01 00:09:26;;;;;;;3.70;2.55;;;6.40;99.90;;;;;;4876829;29;20234;-74
2021/10/01 00:11:53;;;;;;;1.90;1.63;;;6.40;99.90;;;;;;4876888;29;20250;-74
2021/10/01 00:14:23;;;;;;;2.20;2.00;;;6.40;99.90;;;;;;4876437;29;20227;-74
2021/10/01 00:16:50;;;;;;;2.08;1.77;;;6.40;99.90;;;;;;4876726;29;20215;-73
2021/10/01 00:19:18;;;;;;;3.75;2.20;;;6.40;99.90;;;;;;4876805;29;20211;-74
2021/10/01 00:21:45;;;;;;;3.30;1.95;;;6.40;99.90;;;;;;4877120;29;20470;-74
2021/10/01 00:24:12;;;;;;;2.38;2.00;;;6.40;99.90;;;;;;4876575;29;20223;-74
2021/10/01 00:26:41;;;;;;;2.67;1.95;;;6.40;99.90;;;;;;4876206;29;20214;-74
2021/10/01 00:29:09;;;;;;;2.90;2.08;;;6.40;99.90;;;;;;4878626;29;20214;-74
2021/10/01 00:31:37;;;;;;;3.30;1.80;;;6.40;99.90;;;;;;4880217;29;20207;-74
2021/10/01 00:34:06;;;;;;;2.22;2.03;;;6.40;99.90;;;;;;4880036;29;20234;-74
2021/10/01 00:36:33;;;;;;;2.17;1.92;;;6.40;99.90;;;;;;4879739;29;20218;-74
2021/10/01 00:39:00;;;;;;;4.20;2.05;;;6.40;99.90;;;;;;4880233;29;20234;-74
2021/10/01 00:41:28;;;;;;;2.92;1.70;;;6.30;99.90;;;;;;4880038;29;20233;-74
2021/10/01 00:43:55;;;;;;;2.50;1.92;;;6.30;99.90;;;;;;4880142;29;20254;-74
2021/10/01 00:46:22;;;;;;;2.00;1.80;;;6.30;99.90;;;;;;4879458;29;20210;-74
2021/10/01 00:48:51;;;;;;;3.08;2.00;;;6.20;99.90;;;;;;4880161;29;20207;-73
2021/10/01 00:51:19;;;;;;;5.00;1.80;;;6.30;99.90;;;;;;4880342;29;20267;-73
2021/10/01 00:53:46;;;;;;;2.65;1.63;;;6.30;99.90;;;;;;4879789;29;20238;-73
2021/10/01 00:56:13;;;;;;;2.35;1.80;;;6.30;99.90;;;;;;4879518;29;20211;-74
2021/10/01 00:58:39;;;;;;;2.20;1.77;;;6.20;99.90;;;;;;4879848;29;20210;-74
2021/10/01 01:01:10;;;;;;;2.80;2.10;;;6.20;99.90;;;;;;4879566;29;20207;-74
2021/10/01 01:03:40;;;;;;;2.00;1.73;;;6.20;99.90;;;;;;4879620;29;20688;-74
2021/10/01 01:08:43;;;;;;;2.03;1.50;;;6.20;99.90;;;;;;4841989;29;20587;-72
2021/10/01 01:11:20;;;;;;;2.05;1.40;;;6.20;99.90;;;;;;4842388;29;20211;-74
2021/10/01 01:13:56;;;;;;;6.88;1.90;;;6.20;99.90;;;;;;4838548;29;20240;-73
2021/10/01 01:16:28;;;;;;;1.98;1.80;;;6.20;99.90;;;;;;4823376;29;20685;-73
2021/10/01 01:18:58;;;;;;;1.98;1.48;;;6.20;99.90;;;;;;4823938;29;20213;-73
2021/10/01 01:21:40;;;;;;;1.70;1.60;;;6.20;99.90;;;;;;4824186;29;20243;-74
2021/10/01 01:24:22;;;;;;;1.75;1.52;;;6.20;99.90;;;;;;4823714;29;20595;-73
2021/10/01 01:27:05;;;;;;;2.20;1.35;;;6.20;99.90;;;;;;4823458;29;20232;-74
2021/10/01 01:29:38;;;;;;;2.25;1.83;;;6.20;99.90;;;;;;4823784;29;20216;-74
2021/10/01 01:32:19;;;;;;;2.42;1.35;;;6.20;99.90;;;;;;4823634;29;20585;-73
2021/10/01 01:34:49;;;;;;;3.53;1.88;;;6.20;99.90;;;;;;4823517;29;20232;-74
2021/10/01 01:37:23;;;;;;;2.20;1.60;;;6.20;99.90;;;;;;4823648;29;20205;-74
2021/10/01 01:39:51;;;;;;;3.53;1.70;;;6.20;99.90;;;;;;4823321;29;20236;-73
2021/10/01 01:42:19;;;;;;;3.50;1.80;;;6.20;99.90;;;;;;4823557;29;20224;-74
2021/10/01 01:44:47;;;;;;;1.70;1.30;;;6.20;99.90;;;;;;4823223;29;20236;-73
2021/10/01 01:47:16;;;;;;;2.08;1.50;;;6.20;99.90;;;;;;4823184;29;20623;-74
2021/10/01 01:49:44;;;;;;;3.22;1.92;;;6.20;99.90;;;;;;4823558;29;20216;-74
2021/10/01 01:52:11;;;;;;;1.40;1.30;;;6.20;99.90;;;;;;4823284;29;20220;-74
2021/10/01 01:54:39;;;;;;;3.28;1.60;;;6.10;99.90;;;;;;4823112;29;20585;-74
2021/10/01 01:57:07;;;;;;;2.85;1.50;;;6.10;99.90;;;;;;4823047;29;20216;-73
2021/10/01 01:59:35;;;;;;;1.60;1.50;;;6.20;99.90;;;;;;4823449;29;20213;-74
2021/10/01 02:02:02;;;;;;;1.85;1.70;;;6.20;99.90;;;;;;4823223;29;20608;-74
2021/10/01 02:04:32;;;;;;;2.65;1.50;;;6.10;99.90;;;;;;4823086;29;20240;-72
2021/10/01 02:07:00;;;;;;;2.05;1.83;;;6.10;99.90;;;;;;4822866;29;20218;-73
2021/10/01 02:09:30;;;;;;;1.60;1.50;;;6.20;99.90;;;;;;4823139;29;20252;-74
2021/10/01 02:11:57;;;;;;;1.65;1.55;;;6.20;99.90;;;;;;4823359;29;20212;-74
2021/10/01 02:14:28;;;;;;;1.73;1.63;;;6.10;99.90;;;;;;4822777;29;20728;-73
2021/10/01 02:16:57;;;;;;;2.38;1.77;;;6.20;99.90;;;;;;4822881;29;20236;-74
2021/10/01 02:19:27;;;;;;;2.28;1.50;;;6.10;99.90;;;;;;4823026;29;20217;-72
2021/10/01 02:21:56;;;;;;;2.20;1.70;;;6.10;99.90;;;;;;4823142;29;20344;-73
2021/10/01 02:24:27;;;;;;;4.40;1.98;;;6.10;99.90;;;;;;4822714;29;20232;-74
2021/10/01 02:26:59;;;;;;;2.40;1.90;;;6.10;99.90;;;;;;4822617;29;20213;-72
2021/10/01 02:29:31;;;;;;;3.75;1.73;;;6.10;99.90;;;;;;4822858;29;20209;-74
2021/10/01 02:32:06;;;;;;;2.35;1.52;;;6.10;99.90;;;;;;4822959;29;20704;-74
2021/10/01 02:34:37;;;;;;;2.30;1.60;;;6.10;99.90;;;;;;4822534;29;20244;-73
2021/10/01 02:37:07;;;;;;;2.05;1.73;;;6.10;99.90;;;;;;4822586;29;20209;-74
2021/10/01 02:39:35;;;;;;;2.00;1.80;;;6.10;99.90;;;;;;4822914;29;20217;-73
2021/10/01 02:42:02;;;;;;;1.73;1.52;;;6.10;99.90;;;;;;4822741;29;20252;-72
2021/10/01 02:44:28;;;;;;;2.35;1.80;;;6.00;99.90;;;;;;4822579;29;20232;-74
2021/10/01 02:46:55;;;;;;;2.03;1.65;;;6.10;99.90;;;;;;4822300;29;20209;-74
2021/10/01 02:49:22;;;;;;;2.10;1.70;;;6.00;99.90;;;;;;4822521;29;20613;-74
2021/10/01 02:51:54;;;;;;;4.40;2.08;;;6.10;99.90;;;;;;4821947;29;20216;-74
2021/10/01 02:54:27;;;;;;;2.15;1.83;;;6.10;99.90;;;;;;4822293;29;20247;-74
2021/10/01 02:57:02;;;;;;;1.88;1.70;;;6.00;99.90;;;;;;4822204;29;20205;-74
2021/10/01 02:59:31;;;;;;;2.25;2.00;;;6.10;99.90;;;;;;4822596;29;20213;-74
2021/10/01 03:01:59;;;;;;;4.05;2.30;;;6.10;99.90;;;;;;4822486;29;20216;-74
2021/10/01 03:04:28;;;;;;;2.75;1.98;;;6.10;99.90;;;;;;4822248;29;20225;-74
2021/10/01 03:06:55;;;;;;;2.97;2.05;;;6.10;99.90;;;;;;4821948;29;20221;-74
2021/10/01 03:09:27;;;;;;;6.32;2.30;;;6.00;99.90;;;;;;4822300;29;20217;-73
2021/10/01 03:11:56;;;;;;;2.10;1.80;;;6.00;99.90;;;;;;4822505;29;20213;-73
2021/10/01 03:14:24;;;;;;;2.05;1.85;;;6.00;99.90;;;;;;4821958;29;20713;-74
2021/10/01 03:16:52;;;;;;;2.10;1.65;;;5.90;99.90;;;;;;4821749;29;20220;-74
2021/10/01 03:19:22;;;;;;;4.75;1.90;;;6.00;99.90;;;;;;4822489;29;20209;-74
2021/10/01 03:21:52;;;;;;;2.85;2.15;;;6.00;99.90;;;;;;4822342;29;20217;-74
2021/10/01 03:24:20;;;;;;;3.55;1.95;;;5.90;99.90;;;;;;4821896;29;20287;-74
2021/10/01 03:26:48;;;;;;;2.97;2.28;;;5.90;99.90;;;;;;4821649;29;20217;-73
2021/10/01 03:29:15;;;;;;;2.65;1.80;;;5.90;99.90;;;;;;4821923;29;20216;-73
2021/10/01 03:31:42;;;;;;;2.35;1.70;;;5.90;99.90;;;;;;4822124;29;20232;-73
2021/10/01 03:34:09;;;;;;;2.10;1.75;;;5.90;99.90;;;;;;4821864;29;20233;-72
2021/10/01 03:36:37;;;;;;;3.42;2.05;;;5.90;99.90;;;;;;4826315;29;20685;-73
2021/10/01 03:39:04;;;;;;;1.95;1.55;;;5.90;99.90;;;;;;4839101;29;20243;-72
2021/10/01 03:41:31;;;;;;;2.25;1.60;;;5.90;99.90;;;;;;4838715;29;20741;-74
2021/10/01 03:43:59;;;;;;;2.50;1.95;;;5.90;99.90;;;;;;4838580;29;20236;-70
2021/10/01 03:46:26;;;;;;;2.65;1.92;;;5.80;99.90;;;;;;4838248;29;20204;-73
2021/10/01 03:48:53;;;;;;;5.25;1.98;;;5.90;99.90;;;;;;4838666;29;20209;-72
2021/10/01 03:51:23;;;;;;;5.80;1.92;;;5.80;99.90;;;;;;4836614;29;20215;-72
2021/10/01 03:53:50;;;;;;;2.65;1.83;;;5.80;99.90;;;;;;4838530;29;20231;-73
2021/10/01 03:56:17;;;;;;;3.67;1.80;;;5.80;99.90;;;;;;4838669;29;20205;-71
2021/10/01 03:58:44;;;;;;;2.33;1.80;;;5.80;99.90;;;;;;4839488;29;20247;-71
2021/10/01 04:01:12;;;;;;;6.70;2.35;;;5.70;99.90;;;;;;4839633;29;20243;-73
2021/10/01 04:03:39;;;;;;;1.73;1.60;;;5.70;99.90;;;;;;4842418;29;20255;-72
2021/10/01 04:06:06;;;;;;;2.35;1.60;;;5.70;99.90;;;;;;4840188;29;20211;-73
2021/10/01 04:08:33;;;;;;;3.40;2.28;;;5.60;99.90;;;;;;4842099;29;20219;-72
2021/10/01 04:11:00;;;;;;;3.65;2.40;;;5.60;99.90;;;;;;4842281;29;20625;-73
2021/10/01 04:13:28;;;;;;;2.45;1.80;;;5.60;99.90;;;;;;4842261;29;20574;-73
2021/10/01 04:15:55;;;;;;;2.42;2.10;;;5.60;99.90;;;;;;4841699;29;20205;-73
2021/10/01 04:18:23;;;;;;;2.85;2.30;;;5.60;99.90;;;;;;4842052;29;20205;-73
2021/10/01 04:20:50;;;;;;;2.22;2.00;;;5.60;99.90;;;;;;4842464;29;20689;-72
2021/10/01 04:23:18;;;;;;;4.35;2.42;;;5.60;99.90;;;;;;4842994;29;20295;-73
2021/10/01 04:25:44;;;;;;;2.15;1.90;;;5.60;99.90;;;;;;4842136;29;20299;-72
2021/10/01 04:28:11;;;;;;;2.70;1.85;;;5.50;99.90;;;;;;4842410;29;20212;-73
2021/10/01 04:30:42;;;;;;;2.35;1.70;;;5.50;99.90;;;;;;4842713;29;20205;-73
2021/10/01 04:33:16;;;;;;;4.72;2.58;;;5.50;99.90;;;;;;4842967;29;20324;-71
2021/10/01 04:35:44;;;;;;;3.28;2.55;;;5.40;99.90;;;;;;4843115;29;20591;-73
2021/10/01 04:38:11;;;;;;;2.85;2.38;;;5.40;99.90;;;;;;4843176;29;20211;-73
2021/10/01 04:40:37;;;;;;;2.28;1.88;;;5.40;99.90;;;;;;4843072;29;20212;-73
2021/10/01 04:43:04;;;;;;;2.33;1.92;;;5.40;99.90;;;;;;4842894;29;20212;-73
2021/10/01 04:45:31;;;;;;;2.00;1.80;;;5.40;99.90;;;;;;4842542;29;20232;-73
2021/10/01 04:47:58;;;;;;;3.17;1.70;;;5.40;99.90;;;;;;4842894;29;20713;-73
2021/10/01 04:50:24;;;;;;;2.42;1.90;;;5.40;99.90;;;;;;4843242;29;20223;-71
2021/10/01 04:52:52;;;;;;;3.30;1.75;;;5.40;99.90;;;;;;4842862;29;20269;-72
2021/10/01 04:55:19;;;;;;;1.98;1.80;;;5.30;99.90;;;;;;4842169;29;20655;-72
2021/10/01 04:57:46;;;;;;;1.88;1.60;;;5.40;99.90;;;;;;4842938;29;20212;-73
2021/10/01 05:00:14;;;;;;;2.67;1.90;;;5.30;99.90;;;;;;4842929;29;20217;-73
2021/10/01 05:02:40;;;;;;;2.08;1.88;;;5.30;99.90;;;;;;4842844;29;20216;-73
2021/10/01 05:05:07;;;;;;;2.83;2.05;;;5.30;99.90;;;;;;4842240;29;20228;-73
2021/10/01 05:07:36;;;;;;;3.53;2.60;;;5.30;99.90;;;;;;4842457;29;20696;-73
2021/10/01 05:10:05;;;;;;;4.53;2.15;;;5.30;99.90;;;;;;4842445;29;20209;-73
2021/10/01 05:12:32;;;;;;;2.35;2.15;;;5.20;99.90;;;;;;4842717;29;20216;-72
2021/10/01 05:14:59;;;;;;;3.88;1.95;;;5.20;99.90;;;;;;4841186;29;20236;-72
2021/10/01 05:17:30;;;;;;;1.73;1.63;;;5.30;99.90;;;;;;4842232;29;20215;-72
2021/10/01 05:19:56;;;;;;;2.60;1.77;;;5.30;99.90;;;;;;4842233;29;20300;-72
2021/10/01 05:22:23;;;;;;;2.70;2.08;;;5.30;99.90;;;;;;4842515;29;20204;-73
2021/10/01 05:24:50;;;;;;;5.22;2.15;;;5.30;99.90;;;;;;4841885;29;20236;-72
2021/10/01 05:27:18;;;;;;;4.60;2.30;;;5.30;99.90;;;;;;4842212;29;20212;-73
2021/10/01 05:29:45;;;;;;;2.20;2.00;;;5.30;99.90;;;;;;4842227;29;20213;-72
2021/10/01 05:32:11;;;;;;;3.67;2.03;;;5.30;99.90;;;;;;4842248;29;20239;-71
2021/10/01 05:34:38;;;;;;;3.28;1.88;;;5.30;99.90;;;;;;4841914;29;20241;-73
2021/10/01 05:37:05;;;;;;;2.55;2.20;;;5.30;99.90;;;;;;4841883;29;20221;-73
2021/10/01 05:39:33;;;;;;;3.40;2.88;;;5.30;99.90;;;;;;4842009;29;20235;-73
2021/10/01 05:42:00;;;;;;;2.50;2.15;;;5.30;99.90;;;;;;4842206;29;20217;-73
2021/10/01 05:44:28;;;;;;;2.58;2.33;;;5.30;99.90;;;;;;4841985;29;20240;-72
2021/10/01 05:46:55;;;;;;;2.45;1.80;;;5.30;99.90;;;;;;4841471;29;20224;-72
2021/10/01 05:49:23;;;;;;;2.50;2.25;;;5.30;99.90;;;;;;4842232;29;20638;-73
2021/10/01 05:51:52;;;;;;;3.60;1.90;;;5.40;99.90;;;;;;4841836;29;20219;-71
2021/10/01 05:54:23;;;;;;;2.67;2.38;;;5.40;99.90;;;;;;4841695;29;20233;-72
2021/10/01 05:56:51;;;;;;;2.92;2.72;;;5.50;99.90;;;;;;4841335;29;20581;-72
2021/10/01 05:59:18;;;;;;;2.55;2.15;;;5.50;99.90;;;;;;4841828;29;20299;-72
2021/10/01 06:01:46;;;;;;;2.30;2.08;;;5.50;99.90;;;;;;4841642;29;20245;-72
2021/10/01 06:04:13;;;;;;;2.92;2.05;;;5.50;99.90;;;;;;4841609;29;20232;-73
2021/10/01 06:06:41;;;;;;;5.53;2.58;;;5.50;99.90;;;;;;4840901;29;20223;-72
2021/10/01 06:09:10;;;;;;;3.35;2.13;;;5.60;99.90;;;;;;4841646;29;20213;-73
2021/10/01 06:11:37;;;;;;;2.20;2.00;;;5.70;99.90;;;;;;4841396;29;20208;-72
2021/10/01 06:14:04;;;;;;;2.45;2.25;;;5.70;99.90;;;;;;4841262;29;20704;-72
2021/10/01 06:16:32;;;;;;;3.20;2.50;;;5.80;99.90;;;;;;4840912;29;20212;-72
2021/10/01 06:19:00;;;;;;;2.70;2.10;;;5.80;99.90;;;;;;4841421;29;20228;-73
2021/10/01 06:21:27;;;;;;;3.38;2.10;;;5.90;99.90;;;;;;4841424;29;20213;-73
2021/10/01 06:23:54;;;;;;;2.65;2.45;;;5.90;99.90;;;;;;4840936;29;20639;-72
2021/10/01 06:26:20;;;;;;;3.45;2.35;;;6.00;99.90;;;;;;4840793;29;20209;-73
2021/10/01 06:28:47;;;;;;;3.05;2.75;;;6.00;99.90;;;;;;4841222;29;20219;-73
2021/10/01 06:31:14;;;;;;;2.33;2.13;;;6.10;99.90;;;;;;4841213;29;20680;-72
2021/10/01 06:33:42;;;;;;;2.63;2.28;;;6.20;99.90;;;;;;4840888;29;20236;-72
2021/10/01 06:36:12;;;;;;;2.47;2.28;;;6.30;99.90;;;;;;4840694;29;20205;-72
2021/10/01 06:38:39;;;;;;;4.25;3.03;;;6.30;99.90;;;;;;4841059;29;20212;-72
2021/10/01 06:41:05;;;;;;;2.60;2.38;;;6.40;99.90;;;;;;4841207;29;20219;-72
2021/10/01 06:43:32;;;;;;;4.38;2.60;;;6.50;99.90;;;;;;4840897;29;20264;-73
2021/10/01 06:46:00;;;;;;;2.38;2.10;;;6.60;99.90;;;;;;4840746;29;20209;-71
2021/10/01 06:48:40;;;;;;;3.78;2.53;;;6.80;99.90;;;;;;4841038;29;20208;-73
2021/10/01 07:21:49;;;;;;;2.60;2.40;;;10.10;99.90;;;;;;4877635;29;20349;-74
2021/10/01 08:19:10;;;;;;;3.60;1.87;;;13.90;99.90;;;;;;4876962;29;20825;-74
2021/10/01 08:21:37;;;;;;;2.07;1.50;;;13.90;99.90;;;;;;4876885;29;20491;-74
2021/10/01 08:24:05;;;;;;;3.97;1.63;;;14.00;99.90;;;;;;4876751;29;20480;-74
2021/10/01 08:26:32;;;;;;;3.50;2.10;;;14.00;99.90;;;;;;4876523;29;20490;-75
2021/10/01 08:28:58;;;;;;;3.70;1.83;;;14.20;99.90;;;;;;4876864;29;20982;-74
2021/10/01 08:31:29;;;;;;;2.03;1.70;;;14.40;99.90;;;;;;4876824;29;20483;-74
2021/10/01 08:33:56;;;;;;;2.93;2.17;;;14.70;99.90;;;;;;4876582;29;20490;-75
2021/10/01 08:36:23;;;;;;;2.37;1.87;;;14.70;99.90;;;;;;4876196;29;20468;-74
2021/10/01 08:38:50;;;;;;;3.30;2.30;;;14.70;99.90;;;;;;4876969;29;20472;-74
2021/10/01 08:41:17;;;;;;;2.53;1.80;;;14.50;99.90;;;;;;4876759;29;20967;-74
2021/10/01 08:43:45;;;;;;;2.73;1.80;;;14.60;99.90;;;;;;4876433;29;20487;-74
2021/10/01 08:46:12;;;;;;;3.63;1.80;;;14.80;99.90;;;;;;4876323;29;20471;-74
2021/10/01 08:48:42;;;;;;;3.70;2.37;;;14.90;99.90;;;;;;4876598;29;20982;-74
2021/10/01 08:51:10;;;;;;;1.60;1.37;;;15.10;99.90;;;;;;4879929;29;20477;-74
2021/10/01 08:53:38;;;;;;;2.03;1.80;;;15.20;99.90;;;;;;4879614;29;20974;-74
2021/10/01 08:56:07;;;;;;;2.47;1.60;;;15.50;99.90;;;;;;4879372;29;20492;-74
2021/10/01 08:58:34;;;;;;;2.33;1.60;;;15.60;99.90;;;;;;4879920;29;20558;-74
2021/10/01 09:01:01;;;;;;;2.20;1.50;;;15.50;99.90;;;;;;4879904;29;20471;-75
2021/10/01 09:03:28;;;;;;;1.40;1.30;;;15.40;99.90;;;;;;4879664;29;20471;-75
2021/10/01 09:05:56;;;;;;;1.90;1.43;;;15.70;99.90;;;;;;4879343;29;20459;-74
2021/10/01 09:08:25;;;;;;;2.30;1.30;;;15.90;99.90;;;;;;4880115;29;20494;-74
2021/10/01 09:11:03;;;;;;;2.00;1.50;;;16.20;99.90;;;;;;4879827;29;20467;-75
2021/10/01 09:13:30;;;;;;;4.80;1.83;;;16.50;99.90;;;;;;4879417;29;20479;-75
2021/10/01 09:16:02;;;;;;;1.47;1.37;;;16.70;99.90;;;;;;4879443;29;20499;-75
2021/10/01 09:18:31;;;;;;;2.10;1.70;;;16.80;99.90;;;;;;4879647;29;20468;-75
2021/10/01 09:21:08;;;;;;;1.80;1.60;;;17.00;99.90;;;;;;4879605;29;20479;-75
2021/10/01 09:23:40;;;;;;;3.03;1.57;;;17.10;99.90;;;;;;4879424;29;20471;-74
2021/10/01 09:26:10;;;;;;;2.40;1.50;;;17.20;99.90;;;;;;4879377;29;20550;-75
2021/10/01 09:28:49;;;;;;;2.60;1.70;;;17.40;99.90;;;;;;4879536;29;20888;-75
2021/10/01 09:31:43;;;;;;;1.90;1.70;;;17.60;99.90;;;;;;4879610;29;20467;-75
2021/10/01 09:34:11;;;;;;;2.47;1.57;;;17.90;99.90;;;;;;4879270;29;20555;-75
2021/10/01 09:36:41;;;;;;;3.03;1.50;;;18.10;99.90;;;;;;4878667;29;20990;-75
2021/10/01 09:39:08;;;;;;;2.13;1.50;;;18.10;99.90;;;;;;4879106;29;20478;-75
2021/10/01 09:41:37;;;;;;;1.67;1.30;;;17.80;99.90;;;;;;4879109;29;20500;-75
2021/10/01 09:44:11;;;;;;;1.47;1.30;;;17.80;99.90;;;;;;4879048;29;20487;-75
2021/10/01 09:46:42;;;;;;;2.17;1.30;;;17.90;99.90;;;;;;4878429;29;20486;-75
2021/10/01 09:49:10;;;;;;;1.80;1.40;;;18.10;99.90;;;;;;4879008;29;20486;-75
2021/10/01 09:51:39;;;;;;;2.40;1.17;;;18.30;99.90;;;;;;4878825;29;20479;-75
2021/10/01 09:54:11;;;;;;;2.63;1.40;;;18.40;99.90;;;;;;4873306;29;20480;-75
2021/10/01 09:56:38;;;;;;;5.47;1.43;;;18.60;99.90;;;;;;4859837;29;20503;-75
2021/10/01 09:59:15;;;;;;;1.50;1.40;;;18.80;99.90;;;;;;4859759;29;20479;-75
2021/10/01 10:02:05;;;;;;;1.67;1.30;;;19.10;99.90;;;;;;4859793;29;20476;-75
2021/10/01 10:04:34;;;;;;;1.20;1.10;;;19.30;99.90;;;;;;4859093;29;20856;-78
2021/10/01 10:07:20;;;;;;;2.77;1.33;;;19.60;99.90;;;;;;4859025;29;20476;-74
2021/10/01 10:09:50;;;;;;;4.70;1.40;;;19.80;99.90;;;;;;4859900;29;20476;-75
2021/10/01 10:12:19;;;;;;;2.53;1.40;;;20.00;99.90;;;;;;4859922;29;20465;-75
2021/10/01 10:14:50;;;;;;;2.27;1.43;;;19.80;99.90;;;;;;4859485;29;20500;-75
2021/10/01 10:17:19;;;;;;;1.70;1.60;;;19.90;99.90;;;;;;4859676;29;20476;-75
2021/10/01 10:19:46;;;;;;;2.17;1.63;;;19.80;99.90;;;;;;4859507;29;20468;-75
2021/10/01 10:22:14;;;;;;;2.57;1.37;;;19.70;99.90;;;;;;4859702;29;20889;-75
2021/10/01 10:24:42;;;;;;;3.67;1.40;;;19.90;99.90;;;;;;4859308;29;20492;-75
2021/10/01 10:27:09;;;;;;;2.30;1.50;;;20.20;99.90;;;;;;4859098;29;20476;-76
2021/10/01 10:29:38;;;;;;;1.93;1.33;;;20.10;99.90;;;;;;4859528;29;20879;-75
2021/10/01 10:32:09;;;;;;;1.87;1.40;;;20.30;99.90;;;;;;4859493;29;20856;-76
2021/10/01 10:34:36;;;;;;;1.73;1.53;;;20.50;99.90;;;;;;4859291;29;20501;-76
2021/10/01 10:37:06;;;;;;;2.30;1.20;;;20.70;99.90;;;;;;4858843;29;20998;-75
2021/10/01 10:39:45;;;;;;;2.70;1.50;;;20.80;99.90;;;;;;4859266;29;20896;-75
2021/10/01 10:42:18;;;;;;;2.93;1.83;;;21.10;99.90;;;;;;4859315;29;20476;-76
2021/10/01 10:44:47;;;;;;;1.83;1.30;;;21.50;99.90;;;;;;4859225;29;20499;-75
2021/10/01 10:47:40;;;;;;;1.93;1.40;;;21.80;99.90;;;;;;4858534;29;20479;-74
2021/10/01 10:50:30;;;;;;;2.30;1.33;;;21.90;99.90;;;;;;4859182;29;20472;-74
2021/10/01 10:53:27;;;;;;;1.90;1.30;;;21.80;99.90;;;;;;4859010;29;20464;-74
2021/10/01 10:56:15;;;;;;;4.83;1.40;;;21.90;98.70;;;;;;4858479;29;20539;-74
2021/10/01 10:58:45;;;;;;;2.37;1.13;;;21.90;99.90;;;;;;4858745;29;20500;-74
2021/10/01 11:01:26;;;;;;;1.70;1.40;;;22.00;99.90;;;;;;4859043;29;20914;-74
2021/10/01 11:04:31;;;;;;;1.77;1.23;;;22.20;99.90;;;;;;4858614;29;20587;-74
2021/10/01 11:06:58;;;;;;;3.20;1.43;;;22.50;99.90;;;;;;4858435;29;20467;-75
2021/10/01 11:09:31;;;;;;;3.40;2.13;;;22.60;99.90;;;;;;4858642;29;20544;-75
2021/10/01 11:12:00;;;;;;;2.00;1.53;;;22.50;99.90;;;;;;4858318;29;20461;-75
2021/10/01 11:14:29;;;;;;;1.83;1.57;;;22.60;99.70;;;;;;4858489;29;20480;-74
2021/10/01 11:17:20;;;;;;;1.50;1.30;;;22.60;99.90;;;;;;4857879;29;21017;-74
2021/10/01 11:19:50;;;;;;;1.60;1.40;;;22.60;98.50;;;;;;4855453;29;20503;-74
2021/10/01 11:22:28;;;;;;;1.30;1.20;;;22.80;99.00;;;;;;4858729;29;20460;-74
2021/10/01 11:24:57;;;;;;;1.40;1.17;;;23.10;98.60;;;;;;4858741;29;20491;-74
2021/10/01 11:27:25;;;;;;;3.10;1.57;;;23.00;95.50;;;;;;4858027;29;20468;-74
2021/10/01 11:29:52;;;;;;;2.07;1.40;;;23.10;97.20;;;;;;4858465;29;20466;-75
2021/10/01 11:32:22;;;;;;;1.80;1.40;;;23.30;96.90;;;;;;4858361;29;20464;-74
2021/10/01 11:34:51;;;;;;;3.07;1.67;;;23.50;99.90;;;;;;4858405;29;20488;-74
2021/10/01 11:37:25;;;;;;;2.07;1.20;;;23.80;97.70;;;;;;4858119;29;20472;-74
2021/10/01 11:39:53;;;;;;;2.77;1.40;;;23.60;95.50;;;;;;4858475;29;20476;-74
2021/10/01 11:42:26;;;;;;;2.17;1.77;;;23.80;97.20;;;;;;4858447;29;20480;-74
2021/10/01 11:44:53;;;;;;;2.77;1.77;;;24.10;95.20;;;;;;4858790;29;20488;-74
2021/10/01 11:47:20;;;;;;;1.33;1.20;;;24.20;96.60;;;;;;4858012;29;21227;-74
2021/10/01 11:49:56;;;;;;;1.90;1.10;;;24.60;96.90;;;;;;4858456;29;20555;-74
2021/10/01 11:52:23;;;;;;;2.13;1.60;;;24.90;94.00;;;;;;4858376;29;20467;-74
2021/10/01 11:54:54;;;;;;;2.13;1.40;;;24.80;94.60;;;;;;4858212;29;20495;-74
2021/10/01 11:57:22;;;;;;;3.33;1.40;;;25.00;95.30;;;;;;4857954;29;20479;-74
2021/10/01 11:59:57;;;;;;;2.00;1.50;;;25.20;95.90;;;;;;4857123;29;20480;-74
2021/10/01 12:02:29;;;;;;;1.90;1.20;;;25.40;95.30;;;;;;4858088;29;20945;-74
2021/10/01 12:04:56;;;;;;;3.00;1.50;;;25.60;95.50;;;;;;4858176;29;20484;-75
2021/10/01 12:07:23;;;;;;;3.13;1.50;;;25.90;95.10;;;;;;4857740;29;20884;-75
2021/10/01 12:10:05;;;;;;;2.27;1.20;;;26.20;95.10;;;;;;4858125;29;20995;-74
2021/10/01 12:12:31;;;;;;;6.00;1.57;;;26.00;95.10;;;;;;4858087;29;20484;-74
2021/10/01 12:14:59;;;;;;;1.33;1.20;;;25.90;93.70;;;;;;4858067;29;20488;-75
2021/10/01 12:17:26;;;;;;;1.63;1.40;;;25.70;96.10;;;;;;4857404;29;20472;-74
2021/10/01 12:19:59;;;;;;;1.47;1.37;;;25.70;94.80;;;;;;4858195;29;20472;-74
2021/10/01 12:22:32;;;;;;;1.77;1.50;;;25.50;95.30;;;;;;4857966;29;20512;-74
2021/10/01 12:24:59;;;;;;;2.40;1.63;;;25.60;95.10;;;;;;4861289;29;20496;-74
2021/10/01 12:27:34;;;;;;;2.40;1.50;;;25.60;94.30;;;;;;4860850;29;20476;-74
2021/10/01 12:30:05;;;;;;;3.80;1.90;;;25.70;94.60;;;;;;4866718;29;20470;-74
2021/10/01 12:32:32;;;;;;;2.00;1.50;;;25.90;93.80;;;;;;4878234;29;20471;-74
2021/10/01 12:35:00;;;;;;;1.90;1.70;;;25.80;95.40;;;;;;4880155;29;20518;-74
2021/10/01 12:37:29;;;;;;;2.90;1.50;;;25.70;91.50;;;;;;4879341;29;20536;-74
2021/10/01 12:39:58;;;;;;;2.23;1.50;;;25.20;93.60;;;;;;4879882;29;20463;-74
2021/10/01 12:42:27;;;;;;;3.00;1.70;;;25.10;95.20;;;;;;4879742;29;20838;-74
2021/10/01 12:45:00;;;;;;;2.83;1.90;;;25.10;95.00;;;;;;4879672;29;20509;-74
2021/10/01 12:47:29;;;;;;;2.43;1.40;;;25.20;96.00;;;;;;4870406;29;20460;-74
2021/10/01 12:49:58;;;;;;;2.00;1.80;;;25.10;94.70;;;;;;4860452;29;20472;-74
2021/10/01 12:52:25;;;;;;;4.07;1.70;;;25.10;95.60;;;;;;4879347;29;21169;-74
2021/10/01 12:54:54;;;;;;;2.47;1.93;;;24.80;95.00;;;;;;4878536;29;20579;-74
2021/10/01 12:57:26;;;;;;;2.17;1.73;;;24.50;94.00;;;;;;4879259;29;20556;-74
2021/10/01 12:59:55;;;;;;;1.97;1.60;;;24.50;95.30;;;;;;4879554;29;20472;-74
2021/10/01 13:02:23;;;;;;;1.53;1.43;;;24.40;94.80;;;;;;4879364;29;20473;-74
2021/10/01 13:05:00;;;;;;;1.80;1.70;;;24.30;96.30;;;;;;4879460;29;20495;-74
2021/10/01 13:07:30;;;;;;;1.80;1.60;;;24.30;96.30;;;;;;4955496;23;20492;-70
2021/10/01 13:09:58;;;;;;;2.27;1.80;;;24.40;96.70;;;;;;4914795;29;20457;-70
2021/10/01 13:12:33;;;;;;;1.83;1.63;;;24.40;96.90;;;;;;4920216;29;20488;-70
2021/10/01 13:15:21;;;;;;;1.70;1.60;;;24.30;97.00;;;;;;4919887;29;20492;-70
2021/10/01 13:18:04;;;;;;;1.83;1.67;;;24.30;98.40;;;;;;4920470;29;20466;-70
2021/10/01 13:20:33;;;;;;;2.23;1.80;;;24.10;95.60;;;;;;4920144;29;20469;-70
2021/10/01 13:23:04;;;;;;;3.37;2.37;;;23.80;96.60;;;;;;4920031;29;20473;-70
2021/10/01 13:25:34;;;;;;;3.00;2.00;;;23.70;97.40;;;;;;4920055;29;20834;-71
2021/10/01 13:28:04;;;;;;;2.50;2.30;;;23.50;97.20;;;;;;4919805;29;20541;-70
2021/10/01 13:30:31;;;;;;;3.03;2.17;;;23.50;96.10;;;;;;4919600;29;20466;-70
2021/10/01 13:32:58;;;;;;;2.70;2.30;;;23.20;97.90;;;;;;4919612;29;20974;-70
2021/10/01 13:35:26;;;;;;;3.37;2.37;;;23.20;97.90;;;;;;4918875;29;20481;-70
2021/10/01 13:37:54;;;;;;;2.40;1.90;;;23.00;96.40;;;;;;4919224;29;20469;-70
2021/10/01 13:40:22;;;;;;;3.90;2.50;;;23.00;99.60;;;;;;4919833;29;20465;-70
2021/10/01 13:42:50;;;;;;;2.37;2.17;;;23.10;98.90;;;;;;4919501;29;20472;-70
2021/10/01 13:45:17;;;;;;;2.20;2.00;;;23.30;98.80;;;;;;4919575;29;20486;-70
2021/10/01 13:47:44;;;;;;;2.20;1.93;;;23.40;99.90;;;;;;4919871;29;20466;-70
2021/10/01 13:50:13;;;;;;;2.50;2.00;;;23.50;99.60;;;;;;4919649;29;20470;-70
2021/10/01 13:52:40;;;;;;;2.33;2.13;;;23.50;99.90;;;;;;4919852;29;20474;-70
2021/10/01 13:55:11;;;;;;;2.77;2.47;;;23.60;99.80;;;;;;4918985;29;21016;-70
2021/10/01 13:57:38;;;;;;;3.00;2.27;;;23.60;97.40;;;;;;4918355;29;20490;-70
2021/10/01 14:00:09;;;;;;;2.80;2.47;;;23.50;98.90;;;;;;4918519;29;20478;-70
2021/10/01 14:02:37;;;;;;;3.37;2.73;;;23.40;97.40;;;;;;4919391;29;20841;-70
2021/10/01 14:05:05;;;;;;;3.43;2.87;;;23.30;98.30;;;;;;4918339;29;20603;-70
2021/10/01 14:07:32;;;;;;;4.03;3.20;;;23.10;98.70;;;;;;4918223;29;20481;-70
2021/10/01 14:10:00;;;;;;;4.20;3.00;;;23.10;99.90;;;;;;4918714;29;20469;-70
2021/10/01 14:12:29;;;;;;;4.93;2.90;;;23.10;99.80;;;;;;4919262;29;20498;-70
2021/10/01 14:14:58;;;;;;;4.20;3.70;;;23.10;99.40;;;;;;4918244;29;20486;-70
2021/10/01 14:17:25;;;;;;;7.50;3.20;;;23.00;98.00;;;;;;4917186;29;20568;-70
2021/10/01 14:19:52;;;;;;;3.47;3.17;;;22.70;98.40;;;;;;4917657;29;20479;-70
2021/10/01 14:22:19;;;;;;;3.77;3.47;;;22.60;99.30;;;;;;4917619;29;20473;-70
2021/10/01 14:24:46;;;;;;;3.23;2.90;;;22.60;99.90;;;;;;4917660;29;20493;-70
2021/10/01 14:27:13;;;;;;;3.30;2.80;;;22.70;99.90;;;;;;4917691;29;20462;-70
2021/10/01 14:29:41;;;;;;;3.67;3.13;;;22.90;99.90;;;;;;4918502;29;20469;-70
2021/10/01 14:32:09;;;;;;;3.70;3.00;;;23.10;99.90;;;;;;4918163;29;20461;-70
2021/10/01 14:34:36;;;;;;;3.57;3.27;;;23.20;99.90;;;;;;4917673;29;20581;-70